ENEV

Harstad / Narvik , Evenes Airport

Evenes, Norway
METAR ENEV 101450Z 02005KT 9999 BKN049 M02/M05 Q1010 RMK WIND 1400FT 02014KT
Observed Flight Rules
Dec-10 @ 14:50 UTC (53 minutes ago) Visual Flight Rules
Wind Visibility Clouds
20° at 5 knots 10,000+ meters
  • Broken at 4,900' AGL
Temperatures Readings
Current -2°C / 28°F
Dewpoint -5°C / 23°F
Humidity 80%
Altimeter 29.82" Hg
Pressure 1010 hPa
Elevation 26
METAR ENEV 101450Z 02005KT 9999 BKN049 M02/M05 Q1010 RMK WIND 1400FT 02014KT
Observed Flight Rules
Dec-10 @ 14:50 UTC
(53 minutes ago)
VFR
Wind Visibility
20° at 5 knots 10,000+ meters
Clouds
  • Broken at 4,900' AGL
Temperature Dewpoint
-2°C / 28°F -5°C / 23°F
Humidity Altimeter Pressure
80% 29.82" Hg 1010 hPa